KAVP/AVP METAR and TAF weather

Enter ICAO airport designator
Station Type Date Time Source
KAVP METAR 2018/01/23 00:54 UTC NOAA

KAVP 230054Z 04007KT 7SM CLR 07/04 A2998 RMK AO2 SLP155 T00720039


Station Type Date Time Source
KAVP Decoded METAR 2018/01/23 00:54 UTC NOAA

WILKES-BARRE/SCRANTON INTERNATIONAL , PA, United States (KAVP) 41-20N 75-44W 291M
Jan 22, 2018 - 07:54 PM EST / 2018.01.23 0054 UTC
Wind: from the NE (040 degrees) at 8 MPH (7 KT):0
Visibility: 7 mile(s):0
Sky conditions: clear
Temperature: 45.0 F (7.2 C)
Dew Point: 39.0 F (3.9 C)
Relative Humidity: 79%
Pressure (altimeter): 29.98 in. Hg (1015 hPa)
ob: KAVP 230054Z 04007KT 7SM CLR 07/04 A2998 RMK AO2 SLP155 T00720039
cycle: 1

Station Type Date Time Source
KAVP TAF 2018/01/22 18:22 UTC NOAA

TAF KAVP 221720Z 2218/2318 VRB03KT 3SM BR OVC025
FM230800 15008KT 2SM -RA BR SCT008 OVC015


Example: see airport list